createdAt,value
2019-03-27T00:00:28.377Z,0.20
2019-03-27T00:03:05.699Z,0.10
2019-03-27T00:05:37.737Z,0.10
2019-03-27T00:08:08.833Z,0.33
2019-03-27T00:10:39.962Z,0.20
2019-03-27T00:13:11.016Z,0.30
2019-03-27T00:15:41.936Z,0.93
2019-03-27T00:18:13.016Z,0.20
2019-03-27T00:20:44.760Z,0.23
2019-03-27T00:23:15.803Z,2.27
2019-03-27T00:25:46.930Z,0.10
2019-03-27T00:28:17.997Z,0.10
2019-03-27T00:30:48.926Z,1.33
2019-03-27T00:33:20.971Z,0.10
2019-03-27T00:35:52.075Z,0.60
2019-03-27T00:38:23.110Z,0.30
2019-03-27T00:40:54.268Z,0.20
2019-03-27T00:43:27.070Z,0.20
2019-03-27T00:45:58.038Z,0.20
2019-03-27T00:48:28.947Z,0.13
2019-03-27T00:51:00.068Z,0.10
2019-03-27T00:53:31.092Z,0.33
2019-03-27T00:56:02.081Z,0.20
2019-03-27T00:58:33.121Z,0.87
2019-03-27T01:01:10.707Z,0.63
2019-03-27T01:03:41.918Z,0.20
2019-03-27T01:06:13.500Z,0.20
2019-03-27T01:08:44.655Z,0.20
2019-03-27T01:11:15.706Z,0.10
2019-03-27T01:13:46.951Z,0.10
2019-03-27T01:16:18.077Z,0.10
2019-03-27T01:18:49.228Z,0.23
2019-03-27T01:21:20.190Z,0.13
2019-03-27T01:23:51.158Z,0.20
2019-03-27T01:26:22.246Z,0.87
2019-03-27T01:28:53.295Z,0.40
2019-03-27T01:31:24.352Z,0.20
2019-03-27T01:33:55.469Z,0.97
2019-03-27T01:36:26.592Z,0.17
2019-03-27T01:38:57.518Z,2.60
2019-03-27T01:41:30.752Z,0.00
2019-03-27T01:44:01.700Z,0.20
2019-03-27T01:46:32.621Z,0.00
2019-03-27T01:49:03.658Z,0.53
2019-03-27T01:51:34.648Z,0.10
2019-03-27T01:54:05.682Z,0.10
2019-03-27T01:56:37.916Z,0.53
2019-03-27T01:59:08.870Z,0.23
2019-03-27T02:01:39.878Z,0.07
2019-03-27T02:04:12.046Z,0.10
2019-03-27T02:06:43.095Z,1.23
2019-03-27T02:09:15.787Z,0.10
2019-03-27T02:11:46.886Z,0.10
2019-03-27T02:14:17.970Z,0.87
2019-03-27T02:16:49.001Z,0.10
2019-03-27T02:19:20.027Z,0.20
2019-03-27T02:21:51.007Z,0.00
2019-03-27T02:24:22.151Z,0.10
2019-03-27T02:26:53.343Z,0.60
2019-03-27T02:29:24.368Z,0.10
2019-03-27T02:31:55.534Z,0.30
2019-03-27T02:34:26.829Z,0.10
2019-03-27T02:36:57.837Z,0.10
2019-03-27T02:39:29.097Z,0.43
2019-03-27T02:42:00.128Z,0.33
2019-03-27T02:44:31.204Z,1.47
2019-03-27T02:47:02.387Z,1.10
2019-03-27T02:49:33.549Z,0.10
2019-03-27T02:52:04.861Z,0.87
2019-03-27T02:54:35.890Z,0.07
2019-03-27T02:57:10.081Z,1.77
2019-03-27T02:59:41.173Z,0.20
2019-03-27T03:02:12.235Z,0.77
2019-03-27T03:04:43.593Z,0.20
2019-03-27T03:07:14.980Z,0.33
2019-03-27T03:09:45.909Z,0.23
2019-03-27T03:12:16.979Z,0.00
2019-03-27T03:14:48.145Z,1.07
2019-03-27T03:17:19.202Z,2.60
2019-03-27T03:19:53.399Z,0.10
2019-03-27T03:22:24.445Z,0.53
2019-03-27T03:24:55.482Z,0.30
2019-03-27T03:27:26.639Z,0.77
2019-03-27T03:29:57.872Z,0.97
2019-03-27T03:32:29.559Z,0.20
2019-03-27T03:35:00.994Z,0.20
2019-03-27T03:37:32.242Z,0.20
2019-03-27T03:40:03.911Z,0.10
2019-03-27T03:42:35.285Z,1.03
2019-03-27T03:45:08.101Z,0.40
2019-03-27T03:47:39.265Z,0.43
2019-03-27T03:50:27.478Z,0.00
2019-03-27T03:52:58.791Z,0.10
2019-03-27T03:55:30.007Z,0.67
2019-03-27T03:58:01.941Z,0.50
2019-03-27T04:00:33.708Z,0.83
2019-03-27T04:03:06.170Z,0.27
2019-03-27T04:05:37.191Z,0.93
2019-03-27T04:08:08.321Z,0.27
2019-03-27T04:10:39.496Z,0.13
2019-03-27T04:13:10.680Z,0.20
2019-03-27T04:15:41.731Z,1.03
2019-03-27T04:18:12.902Z,2.10
2019-03-27T04:20:44.136Z,0.20
2019-03-27T04:23:15.225Z,0.77
2019-03-27T04:26:08.131Z,0.30
2019-03-27T04:28:19.167Z,0.30
2019-03-27T04:30:51.268Z,0.30
2019-03-27T04:33:22.597Z,0.10
2019-03-27T04:35:53.653Z,0.10
2019-03-27T04:38:24.700Z,0.10
2019-03-27T04:40:55.707Z,0.20
2019-03-27T04:43:27.702Z,1.70
2019-03-27T04:45:58.979Z,0.30
2019-03-27T04:48:30.137Z,0.53
2019-03-27T04:51:01.416Z,1.03
2019-03-27T04:53:32.707Z,0.37
2019-03-27T04:56:04.019Z,0.53
2019-03-27T04:58:35.290Z,0.20
2019-03-27T05:01:06.498Z,0.10
2019-03-27T05:03:37.619Z,0.10
2019-03-27T05:06:08.860Z,1.17
2019-03-27T05:08:39.945Z,0.20
2019-03-27T05:11:11.095Z,0.30
2019-03-27T05:13:42.003Z,1.60
2019-03-27T05:16:13.314Z,0.93
2019-03-27T05:18:44.305Z,0.20
2019-03-27T05:21:15.495Z,0.10
2019-03-27T05:23:46.652Z,0.43
2019-03-27T05:26:18.037Z,0.10
2019-03-27T05:28:49.303Z,0.70
2019-03-27T05:31:20.770Z,2.00
2019-03-27T05:33:54.792Z,2.43
2019-03-27T05:36:25.956Z,0.10
2019-03-27T05:38:56.944Z,0.20
2019-03-27T05:41:27.979Z,0.30
2019-03-27T05:43:58.952Z,0.20
2019-03-27T05:46:30.056Z,0.87
2019-03-27T05:49:01.364Z,0.30
2019-03-27T05:51:32.631Z,0.20
2019-03-27T05:54:03.740Z,2.53
2019-03-27T05:56:35.062Z,0.63
2019-03-27T05:59:08.189Z,1.03
2019-03-27T06:01:39.272Z,0.60
2019-03-27T06:04:10.424Z,0.53
2019-03-27T06:06:41.963Z,1.13
2019-03-27T06:09:12.963Z,0.23
2019-03-27T06:11:44.237Z,1.13
2019-03-27T06:14:15.397Z,0.30
2019-03-27T06:16:46.522Z,0.97
2019-03-27T06:19:18.584Z,1.03
2019-03-27T06:21:49.635Z,0.93
2019-03-27T06:24:21.120Z,0.63
2019-03-27T06:26:53.157Z,0.40
2019-03-27T06:29:24.186Z,0.90
2019-03-27T06:31:55.210Z,0.80
2019-03-27T06:34:26.709Z,0.27
2019-03-27T06:36:57.831Z,1.30
2019-03-27T06:39:29.109Z,0.10
2019-03-27T06:42:00.330Z,2.37
2019-03-27T06:44:31.385Z,0.60
2019-03-27T06:47:04.059Z,0.20
2019-03-27T06:49:35.322Z,1.43
2019-03-27T06:52:06.459Z,1.30
2019-03-27T06:54:37.600Z,1.07
2019-03-27T06:57:08.827Z,0.67
2019-03-27T06:59:39.817Z,0.67
2019-03-27T07:02:11.037Z,0.47
2019-03-27T07:04:42.128Z,0.83
2019-03-27T07:07:13.284Z,0.80
2019-03-27T07:09:44.581Z,0.80
2019-03-27T07:12:21.220Z,0.40
2019-03-27T07:14:48.512Z,2.30
2019-03-27T07:17:19.670Z,0.70
2019-03-27T07:19:50.792Z,2.30
2019-03-27T07:22:21.776Z,3.57
2019-03-27T07:24:52.959Z,6.07
2019-03-27T07:27:24.031Z,4.40
2019-03-27T07:29:55.214Z,4.10
2019-03-27T07:32:26.551Z,6.07
2019-03-27T07:34:57.634Z,5.47
2019-03-27T07:37:32.943Z,4.57
2019-03-27T07:40:04.432Z,6.00
2019-03-27T07:42:35.734Z,5.23
2019-03-27T07:45:08.229Z,6.77
2019-03-27T07:47:39.481Z,5.77
2019-03-27T07:50:11.251Z,5.87
2019-03-27T07:52:42.494Z,4.53
2019-03-27T07:55:19.576Z,6.67
2019-03-27T07:57:46.808Z,4.50
2019-03-27T08:00:19.601Z,4.37
2019-03-27T08:02:51.229Z,4.57
2019-03-27T08:05:22.287Z,5.23
2019-03-27T08:07:53.426Z,3.13
2019-03-27T08:10:24.656Z,4.60
2019-03-27T08:12:55.751Z,4.90
2019-03-27T08:15:26.936Z,4.43
2019-03-27T08:17:58.216Z,4.27
2019-03-27T08:20:29.395Z,3.00
2019-03-27T08:23:01.605Z,3.63
2019-03-27T08:25:32.909Z,4.00
2019-03-27T08:28:04.344Z,3.90
2019-03-27T08:30:35.773Z,3.10
2019-03-27T08:33:07.166Z,207.67
2019-03-27T08:35:38.470Z,13.13
2019-03-27T08:38:09.776Z,3.50
2019-03-27T08:40:41.081Z,2.70
2019-03-27T08:43:21.260Z,3.73
2019-03-27T08:45:45.364Z,2.57
2019-03-27T08:48:16.707Z,3.50
2019-03-27T08:50:47.869Z,2.33
2019-03-27T08:53:19.066Z,31.60
2019-03-27T08:55:50.307Z,2.77
2019-03-27T08:58:21.548Z,0.50
2019-03-27T09:00:54.240Z,0.00
2019-03-27T09:03:25.490Z,0.10
2019-03-27T09:05:56.741Z,0.93
2019-03-27T09:08:28.075Z,0.03
2019-03-27T09:10:59.273Z,0.30
2019-03-27T09:13:30.426Z,0.00
2019-03-27T09:16:02.554Z,0.00
2019-03-27T09:18:33.941Z,0.00
2019-03-27T09:21:07.140Z,0.37
2019-03-27T09:23:38.061Z,0.10
2019-03-27T09:26:09.173Z,0.20
2019-03-27T09:28:40.408Z,0.10
2019-03-27T09:31:11.608Z,0.30
2019-03-27T09:33:42.779Z,0.40
2019-03-27T09:36:14.036Z,0.27
2019-03-27T09:38:45.566Z,0.30
2019-03-27T09:41:16.981Z,0.00
2019-03-27T09:43:48.057Z,1.13
2019-03-27T09:46:21.153Z,0.50
2019-03-27T09:48:52.381Z,0.13
2019-03-27T09:51:23.674Z,0.00
2019-03-27T09:53:54.897Z,0.10
2019-03-27T09:56:27.221Z,0.00
2019-03-27T09:59:00.764Z,0.00
2019-03-27T10:01:36.169Z,0.10
2019-03-27T10:04:07.602Z,0.10
2019-03-27T10:06:38.936Z,0.10
2019-03-27T10:09:12.493Z,0.23
2019-03-27T10:11:43.641Z,0.20
2019-03-27T10:14:14.902Z,0.00
2019-03-27T10:16:46.180Z,0.10
2019-03-27T10:19:17.348Z,0.50
2019-03-27T10:21:48.376Z,0.30
2019-03-27T10:24:19.746Z,0.10
2019-03-27T10:26:50.898Z,0.87
2019-03-27T10:29:23.412Z,1.00
2019-03-27T10:31:54.536Z,0.40
2019-03-27T10:34:25.876Z,0.40
2019-03-27T10:36:57.227Z,0.00
2019-03-27T10:39:28.448Z,0.33
2019-03-27T10:41:59.793Z,0.00
2019-03-27T10:44:31.222Z,0.10
2019-03-27T10:47:02.410Z,0.37
2019-03-27T10:49:34.561Z,0.10
2019-03-27T10:52:06.329Z,0.10
2019-03-27T10:54:37.480Z,0.00
2019-03-27T10:57:09.422Z,0.10
2019-03-27T10:59:40.747Z,0.20
2019-03-27T11:02:12.143Z,0.00
2019-03-27T11:04:46.689Z,0.40
2019-03-27T11:07:18.797Z,0.30
2019-03-27T11:09:50.200Z,0.10
2019-03-27T11:12:24.128Z,0.00
2019-03-27T11:14:56.096Z,0.10
2019-03-27T11:17:35.339Z,0.47
2019-03-27T11:20:09.561Z,0.10
2019-03-27T11:22:42.714Z,0.77
2019-03-27T11:25:14.042Z,0.10
2019-03-27T11:27:45.324Z,0.00
2019-03-27T11:30:18.457Z,0.10
2019-03-27T11:32:52.959Z,0.50
2019-03-27T11:35:24.351Z,0.10
2019-03-27T11:38:03.448Z,0.00
2019-03-27T11:40:36.551Z,0.10
2019-03-27T11:43:08.006Z,0.30
2019-03-27T11:45:43.549Z,0.20
2019-03-27T11:48:17.279Z,0.20
2019-03-27T11:50:53.117Z,0.40
2019-03-27T11:53:25.792Z,0.53
2019-03-27T11:55:57.425Z,0.33
2019-03-27T11:58:28.731Z,0.50
2019-03-27T12:01:00.074Z,0.00
2019-03-27T12:03:31.301Z,0.10
2019-03-27T12:06:03.700Z,0.93
2019-03-27T12:08:35.144Z,0.20
2019-03-27T12:11:06.366Z,1.80
2019-03-27T12:13:37.574Z,2.07
2019-03-27T12:16:09.058Z,2.20
2019-03-27T12:18:40.551Z,1.30
2019-03-27T12:21:11.752Z,2.00
2019-03-27T12:23:42.930Z,1.83
2019-03-27T12:26:14.142Z,1.63
2019-03-27T12:28:45.383Z,1.97
2019-03-27T12:31:17.331Z,1.47
2019-03-27T12:33:48.646Z,1.90
2019-03-27T12:36:20.102Z,1.40
2019-03-27T12:38:51.443Z,1.03
2019-03-27T12:41:24.158Z,1.73
2019-03-27T12:43:55.373Z,1.63
2019-03-27T12:46:26.644Z,2.00
2019-03-27T12:48:57.665Z,1.90
2019-03-27T12:51:29.178Z,2.20
2019-03-27T12:54:00.584Z,2.17
2019-03-27T12:56:31.979Z,1.93
2019-03-27T12:59:03.421Z,2.10
2019-03-27T13:01:34.697Z,2.40
2019-03-27T13:04:06.347Z,2.13
2019-03-27T13:06:37.586Z,2.10
2019-03-27T13:09:09.028Z,2.37
2019-03-27T13:11:40.742Z,1.97
2019-03-27T13:14:19.610Z,1.50
2019-03-27T13:16:52.471Z,1.80
2019-03-27T13:19:23.904Z,1.90
2019-03-27T13:21:55.271Z,1.70
2019-03-27T13:24:26.691Z,1.70
2019-03-27T13:26:58.250Z,1.50
2019-03-27T13:29:29.386Z,2.00
2019-03-27T13:32:00.800Z,1.10
2019-03-27T13:34:33.066Z,1.73
2019-03-27T13:37:04.198Z,1.60
2019-03-27T13:39:35.369Z,1.70
2019-03-27T13:42:06.736Z,1.43
2019-03-27T13:44:37.902Z,1.70
2019-03-27T13:47:09.594Z,1.83
2019-03-27T13:49:41.113Z,2.00
2019-03-27T13:52:12.383Z,2.07
2019-03-27T13:54:43.822Z,1.80
2019-03-27T13:57:15.577Z,1.90
2019-03-27T13:59:46.945Z,2.13
2019-03-27T14:02:18.458Z,2.60
2019-03-27T14:04:51.283Z,1.73
2019-03-27T14:07:22.645Z,2.53
2019-03-27T14:09:53.857Z,1.80
2019-03-27T14:12:25.190Z,2.43
2019-03-27T14:14:56.467Z,2.70
2019-03-27T14:17:27.528Z,2.33
2019-03-27T14:19:58.755Z,2.27
2019-03-27T14:22:30.266Z,2.47
2019-03-27T14:25:04.211Z,2.47
2019-03-27T14:27:35.314Z,2.33
2019-03-27T14:30:09.349Z,2.47
2019-03-27T14:32:40.611Z,2.87
2019-03-27T14:35:12.003Z,3.07
2019-03-27T14:37:44.194Z,2.80
2019-03-27T14:40:15.524Z,3.13
2019-03-27T14:42:46.720Z,2.93
2019-03-27T14:45:17.932Z,3.10
2019-03-27T14:47:49.284Z,3.20
2019-03-27T14:50:20.444Z,3.67
2019-03-27T14:52:51.853Z,3.37
2019-03-27T14:55:23.114Z,3.27
2019-03-27T14:57:54.263Z,3.60
2019-03-27T15:00:25.488Z,3.53
2019-03-27T15:02:56.673Z,3.37
2019-03-27T15:05:27.808Z,3.70
2019-03-27T15:07:59.135Z,4.03
2019-03-27T15:10:30.190Z,4.00
2019-03-27T15:13:01.513Z,4.27
2019-03-27T15:15:33.834Z,4.20
2019-03-27T15:18:05.126Z,4.30
2019-03-27T15:20:37.086Z,4.00
2019-03-27T15:23:08.380Z,4.63
2019-03-27T15:25:43.494Z,4.27
2019-03-27T15:28:15.769Z,4.87
2019-03-27T15:30:49.071Z,4.30
2019-03-27T15:33:20.445Z,5.30
2019-03-27T15:35:51.591Z,5.27
2019-03-27T15:38:22.797Z,4.73
2019-03-27T15:40:53.953Z,5.37
2019-03-27T15:43:25.171Z,6.03
2019-03-27T15:45:56.316Z,6.70
2019-03-27T15:48:27.602Z,6.50
2019-03-27T15:50:59.123Z,6.23
2019-03-27T15:53:30.451Z,5.30
2019-03-27T15:56:01.768Z,5.20
2019-03-27T15:58:32.810Z,5.10
2019-03-27T16:01:05.975Z,6.03
2019-03-27T16:03:37.507Z,6.90
2019-03-27T16:06:08.836Z,6.00
2019-03-27T16:08:39.880Z,5.83
2019-03-27T16:11:11.161Z,5.63
2019-03-27T16:13:42.386Z,5.70
2019-03-27T16:16:13.913Z,6.43
2019-03-27T16:18:45.267Z,6.27
2019-03-27T16:21:16.458Z,8.13
2019-03-27T16:23:47.649Z,8.33
2019-03-27T16:26:18.751Z,9.37
2019-03-27T16:28:50.015Z,6.97
2019-03-27T16:31:21.577Z,7.70
2019-03-27T16:33:52.779Z,8.87
2019-03-27T16:36:23.922Z,6.97
2019-03-27T16:38:55.059Z,7.83
2019-03-27T16:41:26.429Z,7.83
2019-03-27T16:43:59.274Z,9.17
2019-03-27T16:46:30.916Z,6.70
2019-03-27T16:49:02.155Z,6.33
2019-03-27T16:51:34.330Z,5.23
2019-03-27T16:54:05.798Z,5.07
2019-03-27T16:56:37.006Z,4.67
2019-03-27T16:59:08.347Z,5.63
2019-03-27T17:01:39.385Z,4.90
2019-03-27T17:04:10.690Z,4.27
2019-03-27T17:06:41.777Z,4.33
2019-03-27T17:09:13.084Z,4.60
2019-03-27T17:11:44.422Z,4.73
2019-03-27T17:14:15.641Z,4.20
2019-03-27T17:16:47.410Z,4.50
2019-03-27T17:19:18.688Z,4.33
2019-03-27T17:21:50.120Z,4.50
2019-03-27T17:24:21.474Z,5.23
2019-03-27T17:26:53.255Z,4.97
2019-03-27T17:29:25.005Z,5.30
2019-03-27T17:31:56.238Z,5.00
2019-03-27T17:34:28.263Z,5.37
2019-03-27T17:37:01.617Z,5.43
2019-03-27T17:39:34.066Z,5.90
2019-03-27T17:42:05.517Z,6.47
2019-03-27T17:44:36.781Z,6.20
2019-03-27T17:47:08.161Z,6.57
2019-03-27T17:49:39.275Z,6.40
2019-03-27T17:52:10.677Z,7.07
2019-03-27T17:54:42.466Z,7.27
2019-03-27T17:57:13.718Z,8.43
2019-03-27T17:59:44.859Z,10.20
2019-03-27T18:02:16.527Z,10.23
2019-03-27T18:04:47.644Z,11.13
2019-03-27T18:07:19.116Z,11.63
2019-03-27T18:09:50.527Z,11.63
2019-03-27T18:12:25.641Z,11.10
2019-03-27T18:14:57.756Z,10.67
2019-03-27T18:17:30.301Z,11.27
2019-03-27T18:20:03.022Z,11.20
2019-03-27T18:22:36.394Z,12.60
2019-03-27T18:25:09.628Z,10.97
2019-03-27T18:27:42.500Z,11.47
2019-03-27T18:30:14.635Z,13.03
2019-03-27T18:32:47.277Z,12.07
2019-03-27T18:35:18.473Z,12.30
2019-03-27T18:37:49.991Z,11.63
2019-03-27T18:40:21.181Z,12.33
2019-03-27T18:42:52.406Z,11.63
2019-03-27T18:45:24.115Z,13.10
2019-03-27T18:47:55.709Z,12.57
2019-03-27T18:50:29.924Z,13.70
2019-03-27T18:53:04.856Z,13.87
2019-03-27T18:55:37.635Z,11.87
2019-03-27T18:58:14.020Z,12.80
2019-03-27T19:00:48.556Z,11.50
2019-03-27T19:03:20.368Z,11.73
2019-03-27T19:05:51.757Z,9.30
2019-03-27T19:08:23.407Z,10.03
2019-03-27T19:10:54.887Z,10.17
2019-03-27T19:13:26.507Z,9.60
2019-03-27T19:15:57.788Z,9.80
2019-03-27T19:18:32.588Z,9.10
2019-03-27T19:21:05.913Z,9.03
2019-03-27T19:23:37.238Z,9.50
2019-03-27T19:26:08.424Z,9.43
2019-03-27T19:28:39.699Z,11.93
2019-03-27T19:31:11.079Z,10.00
2019-03-27T19:33:42.355Z,10.27
2019-03-27T19:36:13.805Z,10.97
2019-03-27T19:38:45.328Z,12.67
2019-03-27T19:41:17.206Z,11.47
2019-03-27T19:43:48.526Z,14.87
2019-03-27T19:46:20.145Z,14.80
2019-03-27T19:48:51.396Z,11.47
2019-03-27T19:51:22.980Z,12.00
2019-03-27T19:54:00.917Z,11.50
2019-03-27T19:56:44.719Z,12.33
2019-03-27T19:59:20.140Z,11.03
2019-03-27T20:01:51.598Z,11.40
2019-03-27T20:04:22.959Z,11.33
2019-03-27T20:06:54.175Z,10.77
2019-03-27T20:09:25.551Z,11.47
2019-03-27T20:11:56.766Z,11.70
2019-03-27T20:14:28.120Z,11.50
2019-03-27T20:16:59.300Z,12.57
2019-03-27T20:19:30.841Z,13.07
2019-03-27T20:22:03.992Z,91.87
2019-03-27T20:24:40.832Z,45.47
2019-03-27T20:27:07.788Z,21.80
2019-03-27T20:29:40.128Z,11.50
2019-03-27T20:32:13.704Z,12.17
2019-03-27T20:34:44.921Z,11.97
2019-03-27T20:37:16.077Z,12.50
2019-03-27T20:39:49.308Z,10.37
2019-03-27T20:42:20.821Z,11.83
2019-03-27T20:44:51.906Z,13.03
2019-03-27T20:47:24.798Z,11.70
2019-03-27T20:49:56.012Z,11.80
2019-03-27T20:52:27.390Z,12.47
2019-03-27T20:54:58.496Z,12.50
2019-03-27T20:57:35.506Z,13.87
2019-03-27T21:00:07.391Z,15.10
2019-03-27T21:02:40.516Z,14.90
2019-03-27T21:05:15.196Z,14.17
2019-03-27T21:07:46.690Z,14.90
2019-03-27T21:10:17.968Z,14.80
2019-03-27T21:12:49.290Z,16.63
2019-03-27T21:15:23.437Z,15.67
2019-03-27T21:17:57.560Z,14.90
2019-03-27T21:20:29.811Z,14.77
2019-03-27T21:23:01.010Z,17.67
2019-03-27T21:25:38.833Z,16.70
2019-03-27T21:28:10.749Z,15.50
2019-03-27T21:30:45.213Z,14.87
2019-03-27T21:33:17.751Z,14.30
2019-03-27T21:35:48.800Z,14.30
2019-03-27T21:38:19.840Z,15.20
2019-03-27T21:40:50.871Z,14.90
2019-03-27T21:43:21.966Z,999.90
2019-03-27T21:45:53.248Z,999.90
2019-03-27T21:48:25.587Z,999.90
2019-03-27T21:50:56.614Z,16.73
2019-03-27T21:53:27.634Z,16.20
2019-03-27T21:55:58.638Z,15.30
2019-03-27T21:58:29.898Z,15.00
2019-03-27T22:01:01.100Z,16.77
2019-03-27T22:03:33.717Z,16.57
2019-03-27T22:06:05.050Z,16.40
2019-03-27T22:08:36.405Z,17.27
2019-03-27T22:11:10.205Z,16.57
2019-03-27T22:13:42.391Z,17.03
2019-03-27T22:16:13.645Z,16.00
2019-03-27T22:18:44.817Z,16.43
2019-03-27T22:21:16.003Z,15.57
2019-03-27T22:23:47.208Z,15.43
2019-03-27T22:26:18.286Z,999.90
2019-03-27T22:28:49.358Z,999.90
2019-03-27T22:31:20.556Z,120.83
2019-03-27T22:33:51.743Z,60.10
2019-03-27T22:36:22.871Z,26.33
2019-03-27T22:38:53.923Z,17.10
2019-03-27T22:41:24.993Z,17.07
2019-03-27T22:43:56.020Z,16.67
2019-03-27T22:46:27.140Z,15.83
2019-03-27T22:48:58.204Z,17.37
2019-03-27T22:51:29.249Z,16.87
2019-03-27T22:54:00.293Z,18.23
2019-03-27T22:56:31.479Z,49.77
2019-03-27T22:59:02.560Z,16.37
2019-03-27T23:01:42.770Z,16.40
2019-03-27T23:04:14.134Z,16.43
2019-03-27T23:06:45.327Z,16.67
2019-03-27T23:09:16.646Z,16.53
2019-03-27T23:11:47.647Z,16.73
2019-03-27T23:14:18.824Z,17.10
2019-03-27T23:16:49.816Z,17.40
2019-03-27T23:19:20.890Z,16.77
2019-03-27T23:21:52.046Z,14.53
2019-03-27T23:24:23.185Z,15.33
2019-03-27T23:26:55.366Z,17.67
2019-03-27T23:29:26.388Z,17.40
2019-03-27T23:31:57.512Z,18.03
2019-03-27T23:34:28.733Z,18.43
2019-03-27T23:37:00.072Z,18.73
2019-03-27T23:39:32.181Z,19.53
2019-03-27T23:42:03.331Z,19.43
2019-03-27T23:44:34.497Z,18.27
2019-03-27T23:47:05.828Z,19.40
2019-03-27T23:49:36.905Z,20.37
2019-03-27T23:52:08.966Z,19.93
2019-03-27T23:54:42.860Z,19.47
2019-03-27T23:57:14.415Z,20.30
2019-03-27T23:59:45.421Z,19.33
